AZU5041 SBCY-SBKP
Flight info
| Callsign | AZU5041 |
|---|---|
| Flight time | 1h 43m |
| Altitude | 39000 |
| Route | DIKUN DCT ASDOV DCT UTLOT |
| Aircraft | A20N/M-SDE2E3FGHIRWXY/LB1 |
Departure
| Time | 2026-05-07 21:50 |
|---|---|
| Airport | Várzea Grande–Marechal Rondon International Airport (SBCY) |
Arrival
| Time | 2026-05-07 23:33 |
|---|---|
| Airport | Viracopos International Airport (SBKP) |
| Time | Latitude | Longitude | Altitude | Speed | Heading |
|---|---|---|---|---|---|
| 2026-05-07 21:07 | -15.64923 | -56.12042 | 596 ft | 0 kts | 243° |
| 2026-05-07 21:38 | -15.64923 | -56.12041 | 596 ft | 2 kts | 243° |
| 2026-05-07 21:38 | -15.64908 | -56.12020 | 596 ft | 4 kts | 206° |
| 2026-05-07 21:39 | -15.64885 | -56.12016 | 596 ft | 2 kts | 154° |
| 2026-05-07 21:39 | -15.64879 | -56.12019 | 596 ft | 0 kts | 153° |
| 2026-05-07 21:45 | -15.64887 | -56.12015 | 596 ft | 6 kts | 153° |
| 2026-05-07 21:46 | -15.64951 | -56.11981 | 596 ft | 13 kts | 153° |
| 2026-05-07 21:46 | -15.65028 | -56.11940 | 596 ft | 10 kts | 153° |
| 2026-05-07 21:46 | -15.65084 | -56.11889 | 597 ft | 12 kts | 98° |
| 2026-05-07 21:46 | -15.65066 | -56.11815 | 597 ft | 10 kts | 94° |
| 2026-05-07 21:47 | -15.65116 | -56.11764 | 597 ft | 12 kts | 152° |
| 2026-05-07 21:47 | -15.65199 | -56.11719 | 597 ft | 15 kts | 152° |
| 2026-05-07 21:47 | -15.65299 | -56.11666 | 598 ft | 17 kts | 153° |
| 2026-05-07 21:47 | -15.65419 | -56.11603 | 599 ft | 22 kts | 152° |
| 2026-05-07 21:48 | -15.65565 | -56.11523 | 598 ft | 25 kts | 152° |
| 2026-05-07 21:48 | -15.65725 | -56.11439 | 597 ft | 27 kts | 153° |
| 2026-05-07 21:48 | -15.65897 | -56.11349 | 596 ft | 29 kts | 153° |
| 2026-05-07 21:48 | -15.66076 | -56.11254 | 597 ft | 27 kts | 153° |
| 2026-05-07 21:49 | -15.66162 | -56.11192 | 597 ft | 12 kts | 116° |
| 2026-05-07 21:49 | -15.66196 | -56.11161 | 597 ft | 6 kts | 190° |
| 2026-05-07 21:49 | -15.66195 | -56.11189 | 597 ft | 5 kts | 316° |
| 2026-05-07 21:49 | -15.66156 | -56.11213 | 597 ft | 7 kts | 333° |
| 2026-05-07 21:50 | -15.65988 | -56.11302 | 597 ft | 67 kts | 333° |
| 2026-05-07 21:50 | -15.65330 | -56.11650 | 601 ft | 143 kts | 333° |
| 2026-05-07 21:50 | -15.64368 | -56.12159 | 1178 ft | 160 kts | 333° |
| 2026-05-07 21:50 | -15.63326 | -56.12691 | 1945 ft | 172 kts | 334° |
| 2026-05-07 21:51 | -15.62222 | -56.13172 | 2734 ft | 175 kts | 338° |
| 2026-05-07 21:51 | -15.61105 | -56.13774 | 3211 ft | 188 kts | 328° |
| 2026-05-07 21:51 | -15.59923 | -56.14514 | 3558 ft | 210 kts | 331° |
| 2026-05-07 21:51 | -15.58690 | -56.15474 | 3961 ft | 236 kts | 309° |
| 2026-05-07 21:52 | -15.57994 | -56.17075 | 4447 ft | 261 kts | 281° |
| 2026-05-07 21:52 | -15.58131 | -56.19013 | 5078 ft | 281 kts | 254° |
| 2026-05-07 21:52 | -15.58930 | -56.20531 | 5812 ft | 288 kts | 231° |
| 2026-05-07 21:52 | -15.60525 | -56.21811 | 6692 ft | 296 kts | 206° |
| 2026-05-07 21:53 | -15.62527 | -56.22406 | 7480 ft | 303 kts | 191° |
| 2026-05-07 21:53 | -15.64612 | -56.22821 | 8352 ft | 308 kts | 187° |
| 2026-05-07 21:53 | -15.66770 | -56.22868 | 9194 ft | 312 kts | 176° |
| 2026-05-07 21:53 | -15.68942 | -56.22683 | 10021 ft | 315 kts | 174° |
| 2026-05-07 21:54 | -15.71180 | -56.22438 | 10525 ft | 332 kts | 174° |
| 2026-05-07 21:54 | -15.73558 | -56.22192 | 10788 ft | 354 kts | 174° |
| 2026-05-07 21:54 | -15.76060 | -56.21961 | 11306 ft | 365 kts | 175° |
| 2026-05-07 21:54 | -15.78592 | -56.21748 | 12123 ft | 366 kts | 176° |
| 2026-05-07 21:55 | -15.81142 | -56.21543 | 12896 ft | 368 kts | 176° |
| 2026-05-07 21:55 | -15.83690 | -56.21341 | 13560 ft | 372 kts | 176° |
| 2026-05-07 21:55 | -15.86285 | -56.21132 | 14262 ft | 376 kts | 175° |
| 2026-05-07 21:55 | -15.88848 | -56.20526 | 14925 ft | 379 kts | 157° |
| 2026-05-07 21:56 | -15.91105 | -56.19095 | 15550 ft | 383 kts | 138° |
| 2026-05-07 21:56 | -15.92847 | -56.17002 | 16180 ft | 385 kts | 124° |
| 2026-05-07 21:56 | -15.94305 | -56.14695 | 16802 ft | 388 kts | 121° |
| 2026-05-07 21:56 | -15.95747 | -56.12302 | 17401 ft | 392 kts | 121° |
| 2026-05-07 21:57 | -15.97209 | -56.09894 | 17995 ft | 395 kts | 122° |
| 2026-05-07 21:57 | -15.98696 | -56.07483 | 18554 ft | 398 kts | 122° |
| 2026-05-07 21:57 | -16.00215 | -56.05054 | 19127 ft | 401 kts | 122° |
| 2026-05-07 21:57 | -16.01750 | -56.02615 | 19674 ft | 404 kts | 123° |
| 2026-05-07 21:58 | -16.03299 | -56.00163 | 20209 ft | 407 kts | 123° |
| 2026-05-07 21:58 | -16.04855 | -55.97698 | 20741 ft | 409 kts | 123° |
| 2026-05-07 21:58 | -16.06408 | -55.95240 | 21230 ft | 413 kts | 123° |
| 2026-05-07 21:58 | -16.07989 | -55.92738 | 21751 ft | 415 kts | 123° |
| 2026-05-07 21:59 | -16.09578 | -55.90221 | 22208 ft | 418 kts | 123° |
| 2026-05-07 21:59 | -16.10635 | -55.88547 | 22527 ft | 420 kts | 123° |
| 2026-05-07 21:59 | -16.12247 | -55.85992 | 23004 ft | 422 kts | 123° |
| 2026-05-07 21:59 | -16.13862 | -55.83432 | 23475 ft | 425 kts | 123° |
| 2026-05-07 22:00 | -16.16023 | -55.80003 | 24051 ft | 428 kts | 123° |
| 2026-05-07 22:00 | -16.17128 | -55.78248 | 24339 ft | 430 kts | 123° |
| 2026-05-07 22:00 | -16.18771 | -55.75638 | 24740 ft | 433 kts | 124° |
| 2026-05-07 22:00 | -16.20430 | -55.73001 | 25133 ft | 436 kts | 123° |
| 2026-05-07 22:01 | -16.22075 | -55.70388 | 25526 ft | 438 kts | 124° |
| 2026-05-07 22:01 | -16.23748 | -55.67729 | 25900 ft | 441 kts | 124° |
| 2026-05-07 22:01 | -16.25435 | -55.65045 | 26280 ft | 444 kts | 124° |
| 2026-05-07 22:01 | -16.27133 | -55.62344 | 26649 ft | 446 kts | 124° |
| 2026-05-07 22:02 | -16.28836 | -55.59634 | 27005 ft | 449 kts | 124° |
| 2026-05-07 22:02 | -16.30553 | -55.56899 | 27352 ft | 451 kts | 124° |
| 2026-05-07 22:02 | -16.32274 | -55.54157 | 27697 ft | 454 kts | 124° |
| 2026-05-07 22:02 | -16.34012 | -55.51388 | 28035 ft | 456 kts | 124° |
| 2026-05-07 22:03 | -16.35754 | -55.48611 | 28371 ft | 459 kts | 124° |
| 2026-05-07 22:03 | -16.37482 | -55.45855 | 28699 ft | 461 kts | 125° |
| 2026-05-07 22:03 | -16.39242 | -55.43046 | 28983 ft | 463 kts | 125° |
| 2026-05-07 22:03 | -16.41014 | -55.40217 | 29294 ft | 466 kts | 125° |
| 2026-05-07 22:04 | -16.42791 | -55.37381 | 29614 ft | 468 kts | 125° |
| 2026-05-07 22:04 | -16.44571 | -55.34537 | 29915 ft | 470 kts | 125° |
| 2026-05-07 22:04 | -16.46342 | -55.31708 | 30239 ft | 472 kts | 125° |
| 2026-05-07 22:04 | -16.48140 | -55.28835 | 30546 ft | 475 kts | 125° |
| 2026-05-07 22:05 | -16.49953 | -55.25935 | 30855 ft | 477 kts | 125° |
| 2026-05-07 22:05 | -16.51769 | -55.23028 | 31220 ft | 478 kts | 125° |
| 2026-05-07 22:05 | -16.53585 | -55.20119 | 31637 ft | 478 kts | 125° |
| 2026-05-07 22:05 | -16.55398 | -55.17215 | 32070 ft | 477 kts | 126° |
| 2026-05-07 22:06 | -16.57181 | -55.14357 | 32449 ft | 476 kts | 126° |
| 2026-05-07 22:06 | -16.58989 | -55.11460 | 32850 ft | 475 kts | 126° |
| 2026-05-07 22:06 | -16.60800 | -55.08554 | 33230 ft | 474 kts | 126° |
| 2026-05-07 22:06 | -16.62593 | -55.05678 | 33573 ft | 474 kts | 126° |
| 2026-05-07 22:07 | -16.64393 | -55.02788 | 33918 ft | 473 kts | 126° |
| 2026-05-07 22:07 | -16.66173 | -54.99933 | 34257 ft | 473 kts | 126° |
| 2026-05-07 22:07 | -16.67943 | -54.97090 | 34565 ft | 473 kts | 126° |
| 2026-05-07 22:07 | -16.69754 | -54.94182 | 34835 ft | 473 kts | 127° |
| 2026-05-07 22:08 | -16.71530 | -54.91329 | 35113 ft | 474 kts | 127° |
| 2026-05-07 22:08 | -16.73329 | -54.88436 | 35385 ft | 474 kts | 127° |
| 2026-05-07 22:08 | -16.75117 | -54.85560 | 35643 ft | 474 kts | 127° |
| 2026-05-07 22:08 | -16.76918 | -54.82662 | 35901 ft | 474 kts | 127° |
| 2026-05-07 22:09 | -16.78720 | -54.79762 | 36132 ft | 475 kts | 127° |
| 2026-05-07 22:09 | -16.80510 | -54.76880 | 36375 ft | 475 kts | 127° |
| 2026-05-07 22:09 | -16.82289 | -54.74013 | 36591 ft | 476 kts | 127° |
| 2026-05-07 22:09 | -16.84106 | -54.71085 | 36835 ft | 475 kts | 127° |
| 2026-05-07 22:10 | -16.85882 | -54.68222 | 37118 ft | 474 kts | 127° |
| 2026-05-07 22:10 | -16.87673 | -54.65330 | 37398 ft | 472 kts | 127° |
| 2026-05-07 22:10 | -16.89460 | -54.62445 | 37651 ft | 471 kts | 127° |
| 2026-05-07 22:10 | -16.91232 | -54.59586 | 37866 ft | 470 kts | 127° |
| 2026-05-07 22:11 | -16.92992 | -54.56744 | 38021 ft | 471 kts | 127° |
| 2026-05-07 22:11 | -16.94778 | -54.53861 | 38202 ft | 471 kts | 127° |
| 2026-05-07 22:11 | -16.96563 | -54.50977 | 38356 ft | 472 kts | 127° |
| 2026-05-07 22:11 | -16.98348 | -54.48089 | 38495 ft | 472 kts | 127° |
| 2026-05-07 22:12 | -17.00124 | -54.45217 | 38632 ft | 473 kts | 127° |
| 2026-05-07 22:12 | -17.01914 | -54.42320 | 38779 ft | 473 kts | 127° |
| 2026-05-07 22:12 | -17.03681 | -54.39460 | 38895 ft | 473 kts | 127° |
| 2026-05-07 22:12 | -17.05495 | -54.36520 | 38900 ft | 474 kts | 127° |
| 2026-05-07 22:13 | -17.09038 | -54.30774 | 38905 ft | 473 kts | 127° |
| 2026-05-07 22:13 | -17.12591 | -54.25013 | 38907 ft | 473 kts | 127° |
| 2026-05-07 22:14 | -17.16126 | -54.19275 | 38907 ft | 474 kts | 127° |
| 2026-05-07 22:14 | -17.19698 | -54.13473 | 38907 ft | 473 kts | 127° |
| 2026-05-07 22:15 | -17.23264 | -54.07672 | 38903 ft | 474 kts | 127° |
| 2026-05-07 22:15 | -17.26832 | -54.01861 | 38904 ft | 474 kts | 127° |
| 2026-05-07 22:16 | -17.30445 | -53.96159 | 38913 ft | 471 kts | 132° |
| 2026-05-07 22:16 | -17.34580 | -53.90868 | 38906 ft | 469 kts | 134° |
| 2026-05-07 22:17 | -17.38738 | -53.85568 | 38906 ft | 469 kts | 134° |
| 2026-05-07 22:17 | -17.42882 | -53.80279 | 38912 ft | 470 kts | 134° |
| 2026-05-07 22:18 | -17.49088 | -53.72356 | 38913 ft | 470 kts | 134° |
| 2026-05-07 22:19 | -17.53232 | -53.67058 | 38914 ft | 470 kts | 134° |
| 2026-05-07 22:19 | -17.57356 | -53.61783 | 38908 ft | 469 kts | 134° |
| 2026-05-07 22:20 | -17.61498 | -53.56481 | 38906 ft | 469 kts | 134° |
| 2026-05-07 22:20 | -17.65643 | -53.51171 | 38911 ft | 470 kts | 134° |
| 2026-05-07 22:21 | -17.69760 | -53.45892 | 38906 ft | 470 kts | 134° |
| 2026-05-07 22:21 | -17.73895 | -53.40585 | 38913 ft | 470 kts | 134° |
| 2026-05-07 22:22 | -17.78036 | -53.35267 | 38912 ft | 470 kts | 134° |
| 2026-05-07 22:22 | -17.82174 | -53.29947 | 38914 ft | 470 kts | 134° |
| 2026-05-07 22:23 | -17.86285 | -53.24660 | 38906 ft | 468 kts | 134° |
| 2026-05-07 22:23 | -17.90404 | -53.19356 | 38906 ft | 468 kts | 134° |
| 2026-05-07 22:24 | -17.94513 | -53.14059 | 38906 ft | 467 kts | 134° |
| 2026-05-07 22:24 | -17.98593 | -53.08798 | 38905 ft | 467 kts | 134° |
| 2026-05-07 22:25 | -18.02701 | -53.03494 | 38890 ft | 466 kts | 135° |
| 2026-05-07 22:25 | -18.06773 | -52.98235 | 38892 ft | 465 kts | 135° |
| 2026-05-07 22:26 | -18.10875 | -52.92936 | 38917 ft | 469 kts | 135° |
| 2026-05-07 22:26 | -18.14994 | -52.87606 | 38913 ft | 467 kts | 135° |
| 2026-05-07 22:27 | -18.19103 | -52.82284 | 38916 ft | 468 kts | 135° |
| 2026-05-07 22:27 | -18.23171 | -52.77013 | 38913 ft | 467 kts | 135° |
| 2026-05-07 22:28 | -18.27263 | -52.71703 | 38911 ft | 466 kts | 135° |
| 2026-05-07 22:28 | -18.31345 | -52.66405 | 38905 ft | 465 kts | 135° |
| 2026-05-07 22:29 | -18.35423 | -52.61108 | 38906 ft | 465 kts | 135° |
| 2026-05-07 22:29 | -18.39471 | -52.55843 | 38906 ft | 465 kts | 135° |
| 2026-05-07 22:30 | -18.43554 | -52.50527 | 38911 ft | 465 kts | 135° |
| 2026-05-07 22:30 | -18.47625 | -52.45227 | 38911 ft | 465 kts | 135° |
| 2026-05-07 22:31 | -18.51666 | -52.39964 | 38906 ft | 464 kts | 135° |
| 2026-05-07 22:31 | -18.55721 | -52.34672 | 38903 ft | 464 kts | 135° |
| 2026-05-07 22:32 | -18.59774 | -52.29381 | 38924 ft | 463 kts | 135° |
| 2026-05-07 22:32 | -18.63830 | -52.24080 | 38945 ft | 463 kts | 135° |
| 2026-05-07 22:33 | -18.67863 | -52.18803 | 38949 ft | 464 kts | 135° |
| 2026-05-07 22:33 | -18.71922 | -52.13489 | 38951 ft | 464 kts | 135° |
| 2026-05-07 22:34 | -18.75957 | -52.08204 | 38957 ft | 465 kts | 135° |
| 2026-05-07 22:34 | -18.80022 | -52.02874 | 38954 ft | 466 kts | 135° |
| 2026-05-07 22:35 | -18.84090 | -51.97533 | 38981 ft | 466 kts | 135° |
| 2026-05-07 22:35 | -18.88133 | -51.92222 | 38971 ft | 462 kts | 135° |
| 2026-05-07 22:36 | -18.92142 | -51.86952 | 38972 ft | 464 kts | 135° |
| 2026-05-07 22:36 | -18.96192 | -51.81623 | 38970 ft | 463 kts | 135° |
| 2026-05-07 22:37 | -19.00228 | -51.76309 | 38971 ft | 463 kts | 135° |
| 2026-05-07 22:37 | -19.04267 | -51.70988 | 38971 ft | 463 kts | 135° |
| 2026-05-07 22:38 | -19.08271 | -51.65707 | 38971 ft | 463 kts | 135° |
| 2026-05-07 22:38 | -19.12294 | -51.60394 | 38984 ft | 462 kts | 135° |
| 2026-05-07 22:39 | -19.16323 | -51.55070 | 38983 ft | 462 kts | 135° |
| 2026-05-07 22:39 | -19.20341 | -51.49756 | 38983 ft | 462 kts | 135° |
| 2026-05-07 22:40 | -19.24339 | -51.44464 | 38986 ft | 463 kts | 135° |
| 2026-05-07 22:40 | -19.28363 | -51.39131 | 38985 ft | 463 kts | 135° |
| 2026-05-07 22:41 | -19.32391 | -51.33789 | 38986 ft | 463 kts | 135° |
| 2026-05-07 22:41 | -19.36388 | -51.28486 | 38993 ft | 463 kts | 135° |
| 2026-05-07 22:42 | -19.40411 | -51.23142 | 38987 ft | 464 kts | 135° |
| 2026-05-07 22:42 | -19.44434 | -51.17794 | 38994 ft | 463 kts | 135° |
| 2026-05-07 22:43 | -19.48433 | -51.12473 | 39004 ft | 464 kts | 135° |
| 2026-05-07 22:43 | -19.52453 | -51.07121 | 38999 ft | 464 kts | 135° |
| 2026-05-07 22:44 | -19.55815 | -51.02638 | 38989 ft | 462 kts | 135° |
| 2026-05-07 22:44 | -19.59788 | -50.97334 | 38991 ft | 462 kts | 135° |
| 2026-05-07 22:45 | -19.63786 | -50.91997 | 38990 ft | 462 kts | 135° |
| 2026-05-07 22:45 | -19.67783 | -50.86654 | 38987 ft | 460 kts | 135° |
| 2026-05-07 22:46 | -19.71768 | -50.81326 | 38991 ft | 461 kts | 135° |
| 2026-05-07 22:46 | -19.75728 | -50.76025 | 38996 ft | 461 kts | 135° |
| 2026-05-07 22:47 | -19.79721 | -50.70670 | 38996 ft | 462 kts | 135° |
| 2026-05-07 22:47 | -19.83709 | -50.65323 | 38990 ft | 460 kts | 135° |
| 2026-05-07 22:48 | -19.87676 | -50.59997 | 38992 ft | 459 kts | 135° |
| 2026-05-07 22:48 | -19.91615 | -50.54707 | 38986 ft | 459 kts | 135° |
| 2026-05-07 22:49 | -19.95578 | -50.49378 | 38993 ft | 458 kts | 135° |
| 2026-05-07 22:49 | -19.99530 | -50.44057 | 38993 ft | 458 kts | 135° |
| 2026-05-07 22:50 | -20.03478 | -50.38739 | 38993 ft | 458 kts | 135° |
| 2026-05-07 22:50 | -20.07412 | -50.33438 | 38997 ft | 459 kts | 135° |
| 2026-05-07 22:51 | -20.11441 | -50.28177 | 39000 ft | 454 kts | 140° |
| 2026-05-07 22:51 | -20.15995 | -50.23559 | 38993 ft | 451 kts | 144° |
| 2026-05-07 22:52 | -20.20558 | -50.19040 | 38998 ft | 451 kts | 144° |
| 2026-05-07 22:52 | -20.25147 | -50.14489 | 38994 ft | 451 kts | 144° |
| 2026-05-07 22:53 | -20.29744 | -50.09929 | 39000 ft | 451 kts | 144° |
| 2026-05-07 22:53 | -20.34333 | -50.05372 | 38991 ft | 450 kts | 144° |
| 2026-05-07 22:54 | -20.38892 | -50.00840 | 38997 ft | 450 kts | 144° |
| 2026-05-07 22:54 | -20.43476 | -49.96280 | 38994 ft | 450 kts | 144° |
| 2026-05-07 22:55 | -20.48053 | -49.91721 | 39003 ft | 450 kts | 144° |
| 2026-05-07 22:55 | -20.52622 | -49.87169 | 38998 ft | 449 kts | 144° |
| 2026-05-07 22:56 | -20.57189 | -49.82615 | 39008 ft | 449 kts | 144° |
| 2026-05-07 22:56 | -20.61748 | -49.78063 | 39000 ft | 449 kts | 144° |
| 2026-05-07 22:57 | -20.66302 | -49.73511 | 38994 ft | 448 kts | 144° |
| 2026-05-07 22:57 | -20.70851 | -49.68963 | 38994 ft | 448 kts | 144° |
| 2026-05-07 22:58 | -20.75406 | -49.64405 | 38986 ft | 448 kts | 144° |
| 2026-05-07 22:58 | -20.79960 | -49.59847 | 38987 ft | 448 kts | 144° |
| 2026-05-07 22:59 | -20.84505 | -49.55290 | 38987 ft | 448 kts | 144° |
| 2026-05-07 22:59 | -20.89047 | -49.50729 | 38984 ft | 448 kts | 144° |
| 2026-05-07 23:00 | -20.93587 | -49.46169 | 38984 ft | 448 kts | 144° |
| 2026-05-07 23:00 | -20.98133 | -49.41603 | 38982 ft | 448 kts | 144° |
| 2026-05-07 23:01 | -21.02681 | -49.37027 | 38984 ft | 449 kts | 144° |
| 2026-05-07 23:01 | -21.07229 | -49.32444 | 38987 ft | 449 kts | 144° |
| 2026-05-07 23:02 | -21.11749 | -49.27888 | 38989 ft | 448 kts | 144° |
| 2026-05-07 23:02 | -21.16302 | -49.23298 | 38987 ft | 449 kts | 144° |
| 2026-05-07 23:03 | -21.20855 | -49.18700 | 38989 ft | 450 kts | 144° |
| 2026-05-07 23:03 | -21.25386 | -49.14119 | 38994 ft | 450 kts | 144° |
| 2026-05-07 23:04 | -21.29947 | -49.09508 | 39003 ft | 450 kts | 144° |
| 2026-05-07 23:04 | -21.34500 | -49.04898 | 39005 ft | 449 kts | 144° |
| 2026-05-07 23:05 | -21.39057 | -49.00282 | 39002 ft | 449 kts | 144° |
| 2026-05-07 23:05 | -21.43581 | -48.95696 | 39010 ft | 449 kts | 144° |
| 2026-05-07 23:06 | -21.48124 | -48.91083 | 39006 ft | 449 kts | 144° |
| 2026-05-07 23:06 | -21.52665 | -48.86469 | 39003 ft | 449 kts | 144° |
| 2026-05-07 23:07 | -21.57173 | -48.81883 | 39001 ft | 449 kts | 144° |
| 2026-05-07 23:07 | -21.61714 | -48.77262 | 39009 ft | 449 kts | 144° |
| 2026-05-07 23:08 | -21.66244 | -48.72649 | 39009 ft | 449 kts | 144° |
| 2026-05-07 23:08 | -21.70773 | -48.68030 | 39000 ft | 448 kts | 144° |
| 2026-05-07 23:09 | -21.75308 | -48.63400 | 39011 ft | 448 kts | 144° |
| 2026-05-07 23:09 | -21.79802 | -48.58808 | 39003 ft | 448 kts | 144° |
| 2026-05-07 23:10 | -21.84333 | -48.54176 | 39013 ft | 448 kts | 144° |
| 2026-05-07 23:10 | -21.88847 | -48.49555 | 39015 ft | 447 kts | 144° |
| 2026-05-07 23:11 | -21.93353 | -48.44943 | 39008 ft | 447 kts | 144° |
| 2026-05-07 23:11 | -21.97833 | -48.40349 | 38789 ft | 447 kts | 144° |
| 2026-05-07 23:11 | -22.00080 | -48.38045 | 38488 ft | 446 kts | 144° |
| 2026-05-07 23:12 | -22.02337 | -48.35728 | 37826 ft | 449 kts | 144° |
| 2026-05-07 23:12 | -22.04620 | -48.33388 | 36959 ft | 455 kts | 143° |
| 2026-05-07 23:12 | -22.06915 | -48.31031 | 36262 ft | 455 kts | 143° |
| 2026-05-07 23:12 | -22.09208 | -48.28672 | 35568 ft | 455 kts | 142° |
| 2026-05-07 23:13 | -22.11501 | -48.26314 | 34812 ft | 455 kts | 142° |
| 2026-05-07 23:13 | -22.13797 | -48.23955 | 34022 ft | 457 kts | 142° |
| 2026-05-07 23:13 | -22.16098 | -48.21588 | 33247 ft | 457 kts | 141° |
| 2026-05-07 23:13 | -22.18409 | -48.19212 | 32435 ft | 459 kts | 141° |
| 2026-05-07 23:14 | -22.20726 | -48.16827 | 31612 ft | 460 kts | 140° |
| 2026-05-07 23:14 | -22.23018 | -48.14468 | 30786 ft | 461 kts | 140° |
| 2026-05-07 23:14 | -22.25340 | -48.12075 | 30055 ft | 460 kts | 139° |
| 2026-05-07 23:14 | -22.27644 | -48.09697 | 29515 ft | 453 kts | 139° |
| 2026-05-07 23:15 | -22.29900 | -48.07364 | 28929 ft | 449 kts | 139° |
| 2026-05-07 23:15 | -22.32143 | -48.05048 | 28341 ft | 444 kts | 139° |
| 2026-05-07 23:15 | -22.34372 | -48.02746 | 27757 ft | 440 kts | 139° |
| 2026-05-07 23:15 | -22.36575 | -48.00471 | 27179 ft | 436 kts | 139° |
| 2026-05-07 23:16 | -22.38754 | -47.98216 | 26605 ft | 432 kts | 139° |
| 2026-05-07 23:16 | -22.40919 | -47.95975 | 26031 ft | 428 kts | 139° |
| 2026-05-07 23:16 | -22.43034 | -47.93788 | 25469 ft | 424 kts | 139° |
| 2026-05-07 23:16 | -22.45158 | -47.91589 | 24902 ft | 421 kts | 138° |
| 2026-05-07 23:17 | -22.47241 | -47.89381 | 24356 ft | 418 kts | 135° |
| 2026-05-07 23:17 | -22.49247 | -47.87091 | 23526 ft | 420 kts | 135° |
| 2026-05-07 23:17 | -22.51266 | -47.84764 | 22724 ft | 423 kts | 134° |
| 2026-05-07 23:17 | -22.53268 | -47.82447 | 22258 ft | 418 kts | 134° |
| 2026-05-07 23:18 | -22.55225 | -47.80184 | 21702 ft | 415 kts | 134° |
| 2026-05-07 23:18 | -22.57193 | -47.77908 | 21134 ft | 412 kts | 134° |
| 2026-05-07 23:18 | -22.59142 | -47.75654 | 20562 ft | 408 kts | 133° |
| 2026-05-07 23:18 | -22.61071 | -47.73426 | 19994 ft | 404 kts | 133° |
| 2026-05-07 23:19 | -22.62982 | -47.71217 | 19433 ft | 400 kts | 133° |
| 2026-05-07 23:19 | -22.64878 | -47.69026 | 18871 ft | 396 kts | 133° |
| 2026-05-07 23:19 | -22.66668 | -47.66956 | 18337 ft | 392 kts | 132° |
| 2026-05-07 23:19 | -22.68499 | -47.64836 | 17793 ft | 388 kts | 132° |
| 2026-05-07 23:20 | -22.70337 | -47.62711 | 17250 ft | 384 kts | 132° |
| 2026-05-07 23:20 | -22.72158 | -47.60601 | 16703 ft | 380 kts | 132° |
| 2026-05-07 23:20 | -22.73956 | -47.58514 | 16157 ft | 376 kts | 132° |
| 2026-05-07 23:20 | -22.75740 | -47.56444 | 15627 ft | 373 kts | 131° |
| 2026-05-07 23:21 | -22.77481 | -47.54424 | 15101 ft | 370 kts | 131° |
| 2026-05-07 23:21 | -22.79232 | -47.52390 | 14582 ft | 368 kts | 131° |
| 2026-05-07 23:21 | -22.80967 | -47.50373 | 14055 ft | 365 kts | 131° |
| 2026-05-07 23:21 | -22.82694 | -47.48366 | 13540 ft | 362 kts | 131° |
| 2026-05-07 23:22 | -22.84405 | -47.46379 | 13028 ft | 359 kts | 131° |
| 2026-05-07 23:22 | -22.86101 | -47.44408 | 12545 ft | 356 kts | 131° |
| 2026-05-07 23:22 | -22.87785 | -47.42450 | 12035 ft | 354 kts | 131° |
| 2026-05-07 23:22 | -22.89458 | -47.40502 | 11507 ft | 352 kts | 131° |
| 2026-05-07 23:23 | -22.91122 | -47.38563 | 10972 ft | 350 kts | 131° |
| 2026-05-07 23:23 | -22.92784 | -47.36623 | 10456 ft | 349 kts | 131° |
| 2026-05-07 23:23 | -22.94407 | -47.34731 | 10260 ft | 337 kts | 131° |
| 2026-05-07 23:23 | -22.95976 | -47.32906 | 10118 ft | 323 kts | 131° |
| 2026-05-07 23:24 | -22.97475 | -47.31158 | 10003 ft | 310 kts | 131° |
| 2026-05-07 23:24 | -22.98658 | -47.29781 | 9902 ft | 300 kts | 131° |
| 2026-05-07 23:24 | -23.00050 | -47.28153 | 9776 ft | 288 kts | 131° |
| 2026-05-07 23:24 | -23.01366 | -47.26614 | 9674 ft | 276 kts | 131° |
| 2026-05-07 23:25 | -23.02648 | -47.25121 | 9569 ft | 265 kts | 131° |
| 2026-05-07 23:25 | -23.03889 | -47.23674 | 9333 ft | 259 kts | 131° |
| 2026-05-07 23:25 | -23.05136 | -47.22221 | 8801 ft | 267 kts | 131° |
| 2026-05-07 23:25 | -23.06426 | -47.20711 | 8226 ft | 276 kts | 131° |
| 2026-05-07 23:26 | -23.07743 | -47.19167 | 7797 ft | 279 kts | 131° |
| 2026-05-07 23:26 | -23.09058 | -47.17629 | 7457 ft | 277 kts | 131° |
| 2026-05-07 23:26 | -23.10366 | -47.16099 | 7124 ft | 275 kts | 131° |
| 2026-05-07 23:26 | -23.11649 | -47.14598 | 6800 ft | 273 kts | 131° |
| 2026-05-07 23:27 | -23.14180 | -47.11640 | 6500 ft | 255 kts | 131° |
| 2026-05-07 23:27 | -23.15352 | -47.10275 | 6492 ft | 238 kts | 131° |
| 2026-05-07 23:27 | -23.16369 | -47.08945 | 6483 ft | 219 kts | 113° |
| 2026-05-07 23:28 | -23.16656 | -47.07372 | 6520 ft | 215 kts | 78° |
| 2026-05-07 23:28 | -23.16098 | -47.05929 | 6453 ft | 203 kts | 44° |
| 2026-05-07 23:28 | -23.15041 | -47.04964 | 6333 ft | 191 kts | 32° |
| 2026-05-07 23:28 | -23.13993 | -47.04157 | 5998 ft | 187 kts | 31° |
| 2026-05-07 23:29 | -23.12913 | -47.03322 | 5449 ft | 194 kts | 32° |
| 2026-05-07 23:29 | -23.11865 | -47.02479 | 5236 ft | 184 kts | 34° |
| 2026-05-07 23:29 | -23.10880 | -47.01684 | 5090 ft | 170 kts | 27° |
| 2026-05-07 23:29 | -23.09760 | -47.01437 | 4688 ft | 166 kts | 345° |
| 2026-05-07 23:30 | -23.08803 | -47.02094 | 4233 ft | 165 kts | 307° |
| 2026-05-07 23:30 | -23.08143 | -47.03022 | 4011 ft | 149 kts | 308° |
| 2026-05-07 23:30 | -23.07557 | -47.03893 | 3793 ft | 138 kts | 308° |
| 2026-05-07 23:30 | -23.06992 | -47.04727 | 3569 ft | 138 kts | 309° |
| 2026-05-07 23:31 | -23.06397 | -47.05539 | 3427 ft | 138 kts | 310° |
| 2026-05-07 23:31 | -23.05813 | -47.06368 | 3264 ft | 137 kts | 309° |
| 2026-05-07 23:31 | -23.05231 | -47.07185 | 3187 ft | 137 kts | 311° |
| 2026-05-07 23:31 | -23.04834 | -47.07725 | 3087 ft | 138 kts | 309° |
| 2026-05-07 23:32 | -23.04258 | -47.08547 | 2942 ft | 137 kts | 310° |
| 2026-05-07 23:32 | -23.03672 | -47.09359 | 2823 ft | 136 kts | 309° |
| 2026-05-07 23:32 | -23.03095 | -47.10176 | 2678 ft | 136 kts | 310° |
| 2026-05-07 23:32 | -23.02510 | -47.10986 | 2473 ft | 135 kts | 310° |
| 2026-05-07 23:33 | -23.01933 | -47.11788 | 2317 ft | 136 kts | 309° |
| 2026-05-07 23:33 | -23.01354 | -47.12594 | 2166 ft | 132 kts | 308° |
| 2026-05-07 23:33 | -23.00906 | -47.13220 | 2155 ft | 64 kts | 307° |
| 2026-05-07 23:33 | -23.00793 | -47.13385 | 2155 ft | 15 kts | 300° |
| 2026-05-07 23:34 | -23.00757 | -47.13511 | 2155 ft | 19 kts | 283° |
| 2026-05-07 23:34 | -23.00742 | -47.13621 | 2152 ft | 13 kts | 278° |
| 2026-05-07 23:34 | -23.00731 | -47.13725 | 2156 ft | 14 kts | 276° |
| 2026-05-07 23:34 | -23.00723 | -47.13802 | 2155 ft | 8 kts | 276° |
| 2026-05-07 23:35 | -23.00715 | -47.13874 | 2157 ft | 11 kts | 279° |
| 2026-05-07 23:35 | -23.00692 | -47.13966 | 2157 ft | 14 kts | 290° |
| 2026-05-07 23:35 | -23.00640 | -47.14066 | 2157 ft | 17 kts | 306° |
| 2026-05-07 23:35 | -23.00564 | -47.14173 | 2151 ft | 19 kts | 309° |
| 2026-05-07 23:36 | -23.00478 | -47.14292 | 2153 ft | 21 kts | 308° |
| 2026-05-07 23:36 | -23.00383 | -47.14424 | 2151 ft | 23 kts | 307° |
| 2026-05-07 23:36 | -23.00316 | -47.14519 | 2157 ft | 11 kts | 307° |
| 2026-05-07 23:36 | -23.00266 | -47.14590 | 2153 ft | 14 kts | 308° |
| 2026-05-07 23:37 | -23.00202 | -47.14679 | 2152 ft | 16 kts | 308° |
| 2026-05-07 23:37 | -23.00136 | -47.14771 | 2153 ft | 10 kts | 310° |
| 2026-05-07 23:37 | -23.00106 | -47.14834 | 2155 ft | 11 kts | 276° |
| 2026-05-07 23:37 | -23.00110 | -47.14906 | 2157 ft | 2 kts | 264° |
| 2026-05-07 23:38 | -23.00113 | -47.14933 | 2152 ft | 5 kts | 256° |
| 2026-05-07 23:38 | -23.00146 | -47.14972 | 2151 ft | 9 kts | 220° |
| 2026-05-07 23:38 | -23.00213 | -47.15032 | 2157 ft | 16 kts | 219° |
| 2026-05-07 23:38 | -23.00297 | -47.15102 | 2152 ft | 16 kts | 217° |
| 2026-05-07 23:39 | -23.00359 | -47.15153 | 2153 ft | 10 kts | 216° |
| 2026-05-07 23:39 | -23.00411 | -47.15152 | 2150 ft | 2 kts | 135° |
| 2026-05-07 23:39 | -23.00426 | -47.15129 | 2157 ft | 6 kts | 125° |
| 2026-05-07 23:39 | -23.00455 | -47.15083 | 2154 ft | 9 kts | 127° |
| 2026-05-07 23:40 | -23.00487 | -47.15040 | 2157 ft | 8 kts | 128° |
| 2026-05-07 23:40 | -23.00524 | -47.14987 | 2157 ft | 5 kts | 128° |
| 2026-05-07 23:40 | -23.00537 | -47.14970 | 2157 ft | 2 kts | 128° |
| 2026-05-07 23:40 | -23.00546 | -47.14956 | 2157 ft | 3 kts | 128° |
| 2026-05-07 23:41 | -23.00554 | -47.14944 | 2157 ft | 2 kts | 122° |
| 2026-05-07 23:41 | -23.00552 | -47.14927 | 2152 ft | 3 kts | 61° |
| 2026-05-07 23:41 | -23.00542 | -47.14920 | 2157 ft | 2 kts | 34° |
| 2026-05-07 23:41 | -23.00527 | -47.14908 | 2149 ft | 1 kts | 39° |
| 2026-05-07 23:42 | -23.00522 | -47.14903 | 2157 ft | 0 kts | 39° |
| 2026-05-07 23:46 | -23.00522 | -47.14904 | 2157 ft | 0 kts | 39° |
| 2026-05-07 23:52 | -23.00523 | -47.14904 | 2157 ft | 0 kts | 39° |